Time;durP1;ratioP1;P1;durP2;ratioP2;P2;SDS_P1;SDS_P2;PMS_P1;PMS_P2;Temp;Humidity;BMP_temperature;BMP_pressure;BME280_temperature;BME280_humidity;BME280_pressure;Samples;Min_cycle;Max_cycle;Signal;HPM_P1;HPM_P2
2022/09/22 00:03:00;;;;;;;1.88;0.90;;;8.30;99.90;;;;;;6249303;28;20049;-86
2022/09/22 00:06:03;;;;;;;1.55;1.17;;;8.30;99.90;;;;;;6248461;28;20052;-85
2022/09/22 00:09:06;;;;;;;1.98;1.10;;;8.20;99.90;;;;;;6248842;28;20042;-85
2022/09/22 00:12:08;;;;;;;3.33;1.60;;;8.20;99.90;;;;;;6248446;28;20065;-85
2022/09/22 00:15:10;;;;;;;3.95;1.60;;;8.20;99.90;;;;;;6247734;28;20049;-85
2022/09/22 00:18:13;;;;;;;3.08;1.83;;;8.10;99.90;;;;;;6247786;28;20049;-85
2022/09/22 00:21:17;;;;;;;3.05;1.77;;;8.10;99.90;;;;;;6248082;28;20049;-85
2022/09/22 00:24:21;;;;;;;1.70;1.20;;;8.10;99.90;;;;;;6249063;28;20061;-84
2022/09/22 00:27:24;;;;;;;7.18;1.40;;;8.00;99.90;;;;;;6251880;28;20462;-86
2022/09/22 00:30:26;;;;;;;3.47;1.38;;;8.00;99.90;;;;;;6246871;28;20143;-86
2022/09/22 00:33:29;;;;;;;3.53;1.70;;;8.00;99.90;;;;;;6248319;28;20060;-86
2022/09/22 00:36:30;;;;;;;2.90;1.73;;;8.00;99.90;;;;;;6253039;28;20049;-85
2022/09/22 00:39:32;;;;;;;2.97;1.50;;;7.90;99.90;;;;;;6251885;28;20037;-85
2022/09/22 00:42:34;;;;;;;4.07;1.70;;;7.90;99.90;;;;;;6252945;28;20060;-85
2022/09/22 00:45:43;;;;;;;2.83;1.70;;;7.80;99.90;;;;;;6253537;28;20168;-86
2022/09/22 00:48:50;;;;;;;7.15;2.05;;;7.80;99.90;;;;;;6227540;28;20050;-85
2022/09/22 00:51:52;;;;;;;1.47;1.07;;;7.80;99.90;;;;;;6228231;28;20411;-86
2022/09/22 00:54:57;;;;;;;3.92;1.48;;;7.90;99.90;;;;;;6227626;28;20061;-85
2022/09/22 00:58:01;;;;;;;2.90;1.60;;;7.80;99.90;;;;;;6227839;28;20049;-85
2022/09/22 01:01:03;;;;;;;2.85;1.52;;;7.80;99.90;;;;;;6229509;28;20057;-86
2022/09/22 01:04:07;;;;;;;5.32;1.45;;;7.80;99.90;;;;;;6229277;28;20050;-85
2022/09/22 01:07:11;;;;;;;9.85;1.90;;;7.80;99.90;;;;;;6228550;28;20042;-86
2022/09/22 01:10:12;;;;;;;3.65;1.70;;;7.70;99.90;;;;;;6228195;28;20056;-85
2022/09/22 01:13:24;;;;;;;7.63;1.60;;;7.70;99.90;;;;;;6227756;28;20050;-85
2022/09/22 01:16:40;;;;;;;5.72;2.08;;;7.70;99.90;;;;;;6227517;28;20057;-86
2022/09/22 01:20:07;;;;;;;3.33;1.98;;;7.60;99.90;;;;;;6225992;28;20064;-86
2022/09/22 01:23:30;;;;;;;2.92;1.60;;;7.60;99.90;;;;;;6227159;28;20096;-86
2022/09/22 01:27:01;;;;;;;3.25;1.55;;;7.60;99.90;;;;;;6226468;28;20049;-86
2022/09/22 01:30:18;;;;;;;2.28;1.50;;;7.60;99.90;;;;;;6226234;28;20692;-86
2022/09/22 01:33:29;;;;;;;5.00;1.73;;;7.60;99.90;;;;;;6229484;28;20061;-86
2022/09/22 01:36:37;;;;;;;4.45;1.85;;;7.60;99.90;;;;;;6231812;28;20057;-84
2022/09/22 01:39:42;;;;;;;3.55;1.85;;;7.60;99.90;;;;;;6233214;28;20046;-85
2022/09/22 01:42:47;;;;;;;5.43;1.55;;;7.60;99.90;;;;;;6242018;28;20118;-86
2022/09/22 01:45:53;;;;;;;3.67;1.63;;;7.60;99.90;;;;;;6235727;28;20042;-85
2022/09/22 01:48:59;;;;;;;3.08;1.75;;;7.60;99.90;;;;;;6232725;28;20050;-85
2022/09/22 01:52:07;;;;;;;6.22;1.73;;;7.50;99.90;;;;;;6231969;28;20054;-85
2022/09/22 01:55:13;;;;;;;9.65;1.73;;;7.50;99.90;;;;;;6232244;28;20042;-85
2022/09/22 01:58:19;;;;;;;3.22;1.40;;;7.50;99.90;;;;;;6230453;28;20402;-85
2022/09/22 02:01:27;;;;;;;2.15;1.50;;;7.40;99.90;;;;;;6228372;28;20054;-85
2022/09/22 02:04:33;;;;;;;3.30;1.50;;;7.30;99.90;;;;;;6229073;28;20053;-85
2022/09/22 02:07:38;;;;;;;3.60;1.80;;;7.30;99.90;;;;;;6229514;28;20045;-85
2022/09/22 02:10:44;;;;;;;3.95;1.80;;;7.30;99.90;;;;;;6230147;28;20046;-85
2022/09/22 02:13:47;;;;;;;5.20;2.45;;;7.30;99.90;;;;;;6229419;28;20073;-85
2022/09/22 02:16:50;;;;;;;2.67;1.55;;;7.20;99.90;;;;;;6229854;28;20061;-85
2022/09/22 02:19:52;;;;;;;5.47;1.55;;;7.20;99.90;;;;;;6230114;28;20076;-84
2022/09/22 02:22:54;;;;;;;8.30;1.90;;;7.20;99.90;;;;;;6232339;28;20057;-85
2022/09/22 02:25:56;;;;;;;2.35;1.48;;;7.20;99.90;;;;;;6231232;28;20056;-84
2022/09/22 02:29:01;;;;;;;3.00;1.90;;;7.10;99.90;;;;;;6231255;28;20558;-84
2022/09/22 02:32:09;;;;;;;6.43;2.28;;;7.10;99.90;;;;;;6231125;28;20053;-85
2022/09/22 02:35:11;;;;;;;3.13;1.90;;;7.10;99.90;;;;;;6231399;28;20045;-85
2022/09/22 02:38:16;;;;;;;4.10;1.90;;;7.10;99.90;;;;;;6230136;28;20321;-84
2022/09/22 02:41:27;;;;;;;3.75;1.77;;;7.00;99.90;;;;;;6231499;28;20040;-85
2022/09/22 02:44:33;;;;;;;2.95;1.75;;;7.00;99.90;;;;;;6231405;28;20056;-84
2022/09/22 02:47:42;;;;;;;4.68;1.60;;;7.00;99.90;;;;;;6231071;28;20053;-84
2022/09/22 02:50:44;;;;;;;3.30;1.75;;;6.90;99.90;;;;;;6230669;28;20049;-85
2022/09/22 02:53:46;;;;;;;2.78;1.95;;;7.00;99.90;;;;;;6229571;28;20045;-85
2022/09/22 02:56:48;;;;;;;7.85;2.72;;;7.00;99.90;;;;;;6233602;28;20526;-85
2022/09/22 02:59:49;;;;;;;3.25;1.67;;;6.90;99.90;;;;;;6234957;28;20044;-84
2022/09/22 03:02:52;;;;;;;3.80;2.35;;;6.90;99.90;;;;;;6229606;28;20605;-85
2022/09/22 03:05:54;;;;;;;3.58;2.13;;;6.90;99.90;;;;;;6228339;28;20049;-85
2022/09/22 03:08:56;;;;;;;5.95;2.15;;;6.90;99.90;;;;;;6227450;28;20052;-85
2022/09/22 03:11:57;;;;;;;4.75;2.75;;;6.90;99.90;;;;;;6228062;28;20053;-85
2022/09/22 03:14:59;;;;;;;3.35;1.98;;;6.90;99.90;;;;;;6228988;28;20042;-85
2022/09/22 03:18:02;;;;;;;7.53;2.50;;;6.90;99.90;;;;;;6228324;28;20050;-85
2022/09/22 03:21:04;;;;;;;6.50;2.13;;;6.90;99.90;;;;;;6228198;28;20418;-85
2022/09/22 03:24:06;;;;;;;3.83;1.98;;;6.90;99.90;;;;;;6227761;28;20049;-86
2022/09/22 03:27:08;;;;;;;4.45;2.30;;;6.90;99.90;;;;;;6228305;28;20675;-85
2022/09/22 03:30:11;;;;;;;3.65;2.33;;;6.90;99.90;;;;;;6227721;28;20503;-85
2022/09/22 03:33:14;;;;;;;3.22;2.25;;;6.90;99.90;;;;;;6229838;28;20050;-85
2022/09/22 03:36:15;;;;;;;4.15;2.50;;;6.90;99.90;;;;;;6227380;28;20050;-85
2022/09/22 03:39:17;;;;;;;3.80;1.83;;;6.80;99.90;;;;;;6227901;28;20042;-85
2022/09/22 03:42:19;;;;;;;4.80;2.03;;;6.80;99.90;;;;;;6227797;28;20434;-85
2022/09/22 03:45:21;;;;;;;4.90;2.65;;;6.80;99.90;;;;;;6227696;28;20057;-85
2022/09/22 03:48:24;;;;;;;3.83;2.10;;;6.80;99.90;;;;;;6229386;28;20105;-85
2022/09/22 03:51:26;;;;;;;4.72;2.53;;;6.80;99.90;;;;;;6228631;28;20407;-85
2022/09/22 03:54:28;;;;;;;4.35;2.58;;;6.80;99.90;;;;;;6228095;28;20046;-84
2022/09/22 03:57:29;;;;;;;4.63;2.45;;;6.80;99.90;;;;;;6227872;28;20058;-85
2022/09/22 04:00:31;;;;;;;4.78;2.80;;;6.70;99.90;;;;;;6229388;28;20054;-85
2022/09/22 04:03:34;;;;;;;5.57;2.33;;;6.70;99.90;;;;;;6229003;28;20419;-85
2022/09/22 04:06:37;;;;;;;4.20;2.47;;;6.70;99.90;;;;;;6227418;28;20500;-85
2022/09/22 04:09:40;;;;;;;4.97;2.15;;;6.70;99.90;;;;;;6229575;28;20207;-85
2022/09/22 04:12:42;;;;;;;3.28;2.05;;;6.70;99.90;;;;;;6232751;28;20081;-85
2022/09/22 04:15:45;;;;;;;6.57;2.33;;;6.60;99.90;;;;;;6233014;28;20057;-85
2022/09/22 04:18:48;;;;;;;4.78;2.42;;;6.60;99.90;;;;;;6230799;28;20056;-85
2022/09/22 04:21:50;;;;;;;4.15;2.50;;;6.70;99.90;;;;;;6228936;28;20046;-85
2022/09/22 04:24:52;;;;;;;8.55;3.15;;;6.60;99.90;;;;;;6227900;28;20049;-85
2022/09/22 04:27:54;;;;;;;6.25;3.03;;;6.60;99.90;;;;;;6227604;28;20423;-85
2022/09/22 04:30:56;;;;;;;6.90;2.55;;;6.60;99.90;;;;;;6227535;28;20056;-86
2022/09/22 04:33:59;;;;;;;4.32;2.20;;;6.60;99.90;;;;;;6234390;28;20062;-84
2022/09/22 04:37:00;;;;;;;6.00;2.95;;;6.70;99.90;;;;;;6235283;28;20061;-85
2022/09/22 04:40:02;;;;;;;3.70;2.42;;;6.70;99.90;;;;;;6236519;28;20081;-85
2022/09/22 04:43:04;;;;;;;4.07;2.53;;;6.80;99.90;;;;;;6237405;28;20049;-84
2022/09/22 04:46:06;;;;;;;4.55;2.75;;;6.80;99.90;;;;;;6240212;28;20046;-83
2022/09/22 04:49:09;;;;;;;5.18;3.03;;;6.80;99.90;;;;;;6249736;28;20052;-84
2022/09/22 04:52:10;;;;;;;6.00;2.80;;;6.80;99.90;;;;;;6234454;28;20054;-84
2022/09/22 04:55:14;;;;;;;7.00;3.20;;;6.80;99.90;;;;;;6234254;28;20124;-84
2022/09/22 04:58:16;;;;;;;6.82;3.20;;;6.80;99.90;;;;;;6232898;28;20108;-84
2022/09/22 05:01:18;;;;;;;11.43;2.75;;;6.90;99.90;;;;;;6233737;28;20062;-84
2022/09/22 05:04:21;;;;;;;5.18;3.15;;;6.90;99.90;;;;;;6235871;28;20050;-84
2022/09/22 05:07:23;;;;;;;5.05;3.17;;;6.90;99.90;;;;;;6234416;28;20392;-84
2022/09/22 05:10:26;;;;;;;9.52;3.45;;;6.90;99.90;;;;;;6235948;28;20048;-84
2022/09/22 05:13:29;;;;;;;5.95;2.40;;;6.90;99.90;;;;;;6234932;28;20061;-84
2022/09/22 05:16:31;;;;;;;6.35;3.38;;;6.90;99.90;;;;;;6235052;28;20054;-84
2022/09/22 05:19:34;;;;;;;9.27;3.75;;;7.00;99.90;;;;;;6233775;28;20100;-84
2022/09/22 05:22:38;;;;;;;9.63;4.32;;;7.00;99.90;;;;;;6233911;28;20050;-84
2022/09/22 05:25:40;;;;;;;6.20;4.15;;;7.00;99.90;;;;;;6235086;28;20045;-84
2022/09/22 05:28:41;;;;;;;10.65;3.05;;;7.10;99.90;;;;;;6235833;28;20058;-84
2022/09/22 05:31:43;;;;;;;6.32;3.35;;;7.20;99.90;;;;;;6233819;28;20097;-84
2022/09/22 05:34:46;;;;;;;8.45;3.53;;;7.20;99.90;;;;;;6233832;28;20427;-84
2022/09/22 05:37:50;;;;;;;6.47;3.83;;;7.20;99.90;;;;;;6230122;28;20046;-82
2022/09/22 05:40:52;;;;;;;12.90;4.43;;;7.40;99.90;;;;;;6231005;28;20041;-82
2022/09/22 05:43:53;;;;;;;7.40;3.80;;;7.50;99.90;;;;;;6230224;28;20399;-82
2022/09/22 05:46:55;;;;;;;5.80;2.65;;;7.60;99.90;;;;;;6229635;28;20049;-82
2022/09/22 05:49:58;;;;;;;7.70;4.05;;;7.70;99.90;;;;;;6230498;28;20057;-82
2022/09/22 05:53:04;;;;;;;7.05;4.30;;;7.90;99.90;;;;;;6230189;28;20050;-82
2022/09/22 05:56:06;;;;;;;11.07;3.55;;;8.00;99.90;;;;;;6229059;28;20046;-82
2022/09/22 05:59:08;;;;;;;6.28;3.38;;;8.10;99.90;;;;;;6228827;28;20499;-82
2022/09/22 06:02:10;;;;;;;9.98;3.50;;;8.20;99.90;;;;;;6229140;28;20046;-82
2022/09/22 06:05:13;;;;;;;5.53;2.63;;;8.20;99.90;;;;;;6230004;28;20049;-82
2022/09/22 06:08:15;;;;;;;5.78;3.45;;;8.40;99.90;;;;;;6229452;28;20060;-81
2022/09/22 06:11:17;;;;;;;5.30;2.63;;;8.50;99.90;;;;;;6229029;28;20056;-82
2022/09/22 06:14:18;;;;;;;5.38;3.38;;;8.50;99.90;;;;;;6229964;28;20053;-82
2022/09/22 06:17:22;;;;;;;4.43;2.78;;;8.60;99.90;;;;;;6229940;28;20138;-82
2022/09/22 06:20:25;;;;;;;6.63;2.72;;;8.80;99.90;;;;;;6231252;28;20056;-81
2022/09/22 06:23:26;;;;;;;7.10;2.70;;;8.80;99.90;;;;;;6233716;28;20400;-82
2022/09/22 06:26:28;;;;;;;6.22;1.98;;;9.00;99.90;;;;;;6229567;28;20053;-81
2022/09/22 06:29:29;;;;;;;5.97;2.67;;;9.10;99.90;;;;;;6229261;28;20057;-81
2022/09/22 06:32:32;;;;;;;5.53;2.25;;;9.30;99.90;;;;;;6228341;28;20060;-81
2022/09/22 06:35:36;;;;;;;5.20;2.28;;;9.40;99.90;;;;;;6229747;28;20049;-82
2022/09/22 06:38:38;;;;;;;3.92;2.85;;;9.50;99.90;;;;;;6228895;28;20046;-82
2022/09/22 06:41:40;;;;;;;3.38;1.98;;;9.60;99.90;;;;;;6228045;28;20050;-82
2022/09/22 06:44:43;;;;;;;8.43;3.00;;;9.70;99.90;;;;;;6229483;28;20057;-82
2022/09/22 06:47:45;;;;;;;5.55;2.40;;;9.90;99.90;;;;;;6227810;28;20046;-82
2022/09/22 06:50:52;;;;;;;10.07;2.00;;;10.10;99.90;;;;;;6228137;28;20105;-81
2022/09/22 06:53:54;;;;;;;12.73;2.80;;;10.30;99.90;;;;;;6229073;28;20054;-81
2022/09/22 06:56:56;;;;;;;2.60;1.92;;;10.50;99.90;;;;;;6229336;28;20052;-82
2022/09/22 06:59:58;;;;;;;3.75;1.60;;;10.80;99.90;;;;;;6228901;28;20048;-82
2022/09/22 07:03:05;;;;;;;2.97;1.98;;;11.00;99.90;;;;;;6228485;28;20046;-82
2022/09/22 07:06:08;;;;;;;4.93;2.00;;;11.30;99.90;;;;;;6228853;28;20137;-82
2022/09/22 07:09:11;;;;;;;3.03;1.77;;;11.60;99.90;;;;;;6230294;28;20054;-82
2022/09/22 07:12:13;;;;;;;4.60;1.15;;;12.00;99.90;;;;;;6229611;28;20037;-82
2022/09/22 07:15:15;;;;;;;10.63;1.75;;;12.50;99.00;;;;;;6228495;28;20053;-81
2022/09/22 07:18:16;;;;;;;2.50;1.40;;;13.30;98.20;;;;;;6228271;28;20056;-82
2022/09/22 07:21:22;;;;;;;3.40;1.73;;;14.70;95.20;;;;;;6228552;28;20049;-81
2022/09/22 07:24:26;;;;;;;6.35;2.30;;;16.30;91.70;;;;;;6228788;28;20054;-81
2022/09/22 07:27:28;;;;;;;2.65;1.60;;;17.90;85.60;;;;;;6228322;28;20057;-82
2022/09/22 07:30:29;;;;;;;3.50;1.70;;;19.30;78.10;;;;;;6228624;28;20045;-81
2022/09/22 07:33:31;;;;;;;5.45;1.60;;;20.20;71.70;;;;;;6228784;28;20081;-82
2022/09/22 07:36:36;;;;;;;2.63;1.63;;;20.60;67.00;;;;;;6228338;28;20050;-82
2022/09/22 07:39:38;;;;;;;3.75;1.80;;;20.80;65.60;;;;;;6227246;28;20049;-82
2022/09/22 07:42:40;;;;;;;3.33;1.40;;;21.10;63.80;;;;;;6228641;28;20069;-82
2022/09/22 07:45:41;;;;;;;4.53;1.60;;;21.20;61.80;;;;;;6230240;28;20041;-81
2022/09/22 07:48:45;;;;;;;2.75;1.25;;;21.00;61.70;;;;;;6230192;28;20054;-81
2022/09/22 07:51:48;;;;;;;4.90;2.15;;;20.60;61.40;;;;;;6205621;28;20045;-81
2022/09/22 07:54:50;;;;;;;3.90;1.05;;;19.70;63.70;;;;;;6241333;28;20038;-82
2022/09/22 07:57:56;;;;;;;2.60;1.73;;;19.30;66.10;;;;;;6245202;28;20056;-81
2022/09/22 08:00:58;;;;;;;6.30;1.77;;;18.80;65.90;;;;;;6243048;28;20411;-81
2022/09/22 08:04:00;;;;;;;3.53;1.20;;;18.50;67.70;;;;;;6250740;28;20046;-81
2022/09/22 08:07:04;;;;;;;5.65;1.63;;;18.40;68.60;;;;;;6246957;28;20050;-81
2022/09/22 08:10:06;;;;;;;5.15;1.35;;;18.40;68.30;;;;;;6224679;28;20093;-81
2022/09/22 08:13:09;;;;;;;5.18;1.67;;;18.20;68.40;;;;;;6225925;28;20060;-81
2022/09/22 08:16:10;;;;;;;3.65;1.10;;;18.00;68.20;;;;;;6225762;28;20134;-80
2022/09/22 08:19:13;;;;;;;4.65;0.80;;;17.90;69.20;;;;;;6224682;28;20045;-81
2022/09/22 08:22:17;;;;;;;2.50;1.38;;;18.20;69.00;;;;;;6231476;28;20058;-82
2022/09/22 08:25:19;;;;;;;5.95;1.13;;;18.40;68.90;;;;;;6237294;28;20111;-81
2022/09/22 08:28:20;;;;;;;2.30;1.10;;;18.70;67.20;;;;;;6227638;28;20045;-81
2022/09/22 08:31:24;;;;;;;0.80;0.52;;;18.90;66.50;;;;;;6226505;28;20038;-81
2022/09/22 08:34:25;;;;;;;4.57;1.45;;;19.10;65.50;;;;;;6227303;28;20050;-81
2022/09/22 08:37:28;;;;;;;2.92;1.08;;;19.60;65.20;;;;;;6226847;28;20160;-80
2022/09/22 08:40:30;;;;;;;2.13;1.10;;;20.10;64.00;;;;;;6227605;28;20042;-81
2022/09/22 08:43:32;;;;;;;3.38;1.30;;;20.00;63.10;;;;;;6226535;28;20503;-81
2022/09/22 08:46:36;;;;;;;2.00;1.05;;;19.90;63.90;;;;;;6228258;28;20053;-81
2022/09/22 08:53:05;;;;;;;2.35;1.30;;;19.70;63.80;;;;;;6227554;28;20046;-81
2022/09/22 08:56:20;;;;;;;5.43;1.25;;;19.80;64.80;;;;;;6234104;28;20120;-80
2022/09/22 08:59:25;;;;;;;3.55;1.00;;;20.10;63.80;;;;;;6249200;28;20049;-81
2022/09/22 09:02:43;;;;;;;1.13;0.80;;;20.30;62.90;;;;;;6255496;28;20049;-81
2022/09/22 09:05:49;;;;;;;;;;;20.50;62.00;;;;;;6254192;28;20410;-81
2022/09/22 09:09:07;;;;;;;1.50;0.68;;;21.10;61.20;;;;;;6255461;28;19928;-81
2022/09/22 09:12:37;;;;;;;3.17;0.60;;;21.50;60.00;;;;;;6254024;28;20042;-81
2022/09/22 09:15:52;;;;;;;2.33;0.88;;;21.80;57.80;;;;;;6245140;28;20049;-81
2022/09/22 09:18:57;;;;;;;2.58;0.70;;;21.80;57.10;;;;;;6253663;28;20049;-81
2022/09/22 09:22:04;;;;;;;1.90;0.80;;;22.10;57.80;;;;;;6254864;28;20049;-81
2022/09/22 09:25:14;;;;;;;3.33;0.70;;;22.30;56.10;;;;;;6245857;28;20049;-81
2022/09/22 09:28:19;;;;;;;3.30;1.73;;;22.10;55.60;;;;;;6253586;28;20487;-81
2022/09/22 09:31:28;;;;;;;2.40;1.45;;;21.80;55.90;;;;;;6253469;28;20049;-81
2022/09/22 09:34:30;;;;;;;2.28;1.05;;;21.30;56.80;;;;;;6253342;28;20180;-81
2022/09/22 09:37:32;;;;;;;11.10;8.27;;;20.90;57.50;;;;;;6253521;28;20407;-81
2022/09/22 09:40:35;;;;;;;2.97;1.15;;;20.60;59.10;;;;;;6254318;28;20056;-81
2022/09/22 09:43:41;;;;;;;3.50;2.85;;;20.40;59.10;;;;;;6253250;28;20052;-81
2022/09/22 09:46:53;;;;;;;1.58;1.10;;;20.30;59.60;;;;;;6253448;28;20134;-81
2022/09/22 09:49:55;;;;;;;1.58;0.70;;;20.40;59.90;;;;;;6253077;28;20049;-81
2022/09/22 09:52:58;;;;;;;1.80;0.65;;;20.70;58.50;;;;;;6253584;28;20049;-81
2022/09/22 09:56:01;;;;;;;5.10;0.70;;;20.80;58.60;;;;;;6243873;28;20523;-81
2022/09/22 10:02:27;;;;;;;2.15;0.60;;;21.00;57.90;;;;;;6228452;28;20496;-81
2022/09/22 10:05:31;;;;;;;2.00;0.80;;;21.20;57.20;;;;;;6250574;28;20065;-81
2022/09/22 10:08:42;;;;;;;1.10;0.40;;;21.30;57.10;;;;;;6253618;28;20045;-81
2022/09/22 10:11:58;;;;;;;0.82;0.60;;;21.50;56.50;;;;;;6252774;28;20045;-81
2022/09/22 10:15:01;;;;;;;2.28;1.08;;;21.40;56.60;;;;;;6253396;28;20045;-80
2022/09/22 10:18:23;;;;;;;1.95;0.80;;;21.30;56.70;;;;;;6253346;28;20058;-81
2022/09/22 10:21:26;;;;;;;3.78;0.77;;;21.60;56.20;;;;;;6253093;28;20045;-81
2022/09/22 10:24:31;;;;;;;2.75;0.70;;;22.00;56.30;;;;;;6250885;28;20046;-81
2022/09/22 10:27:34;;;;;;;1.98;0.60;;;22.40;55.00;;;;;;6248691;28;20048;-81
2022/09/22 10:30:36;;;;;;;2.05;0.90;;;23.00;53.60;;;;;;6253249;28;20446;-81
2022/09/22 10:33:54;;;;;;;1.55;0.65;;;23.10;53.70;;;;;;6253443;28;20072;-81
2022/09/22 10:36:57;;;;;;;1.83;0.40;;;23.50;52.20;;;;;;6253556;28;20046;-81
2022/09/22 10:40:02;;;;;;;3.10;0.75;;;23.40;51.70;;;;;;6253648;28;20122;-81
2022/09/22 10:43:20;;;;;;;1.00;0.40;;;23.10;51.10;;;;;;6253334;28;20049;-81
2022/09/22 10:46:56;;;;;;;2.55;0.43;;;23.00;52.30;;;;;;6253266;28;20053;-81
2022/09/22 10:50:27;;;;;;;1.25;0.40;;;22.80;50.90;;;;;;6247527;28;20041;-81
2022/09/22 10:53:38;;;;;;;0.88;0.47;;;22.90;50.60;;;;;;6245616;28;20049;-81
2022/09/22 10:56:46;;;;;;;0.63;0.35;;;22.90;50.80;;;;;;6246480;28;20049;-80
2022/09/22 11:00:03;;;;;;;4.90;0.68;;;22.70;50.90;;;;;;6246569;28;20113;-81
2022/09/22 11:03:42;;;;;;;2.75;0.75;;;22.60;51.50;;;;;;6251378;28;20053;-81
2022/09/22 11:14:10;;;;;;;4.55;0.98;;;23.00;50.40;;;;;;6210324;28;20045;-82
2022/09/22 11:17:27;;;;;;;3.83;0.77;;;23.10;50.30;;;;;;6229011;28;20050;-81
2022/09/22 11:20:35;;;;;;;10.57;2.05;;;22.90;51.10;;;;;;6226811;28;20181;-81
2022/09/22 11:24:00;;;;;;;3.70;0.50;;;22.80;51.10;;;;;;6231126;28;20068;-81
2022/09/22 11:27:03;;;;;;;0.75;0.40;;;22.70;51.20;;;;;;6226771;28;20526;-80
2022/09/22 11:30:13;;;;;;;1.65;0.50;;;22.90;51.30;;;;;;6225614;28;20050;-80
2022/09/22 11:33:35;;;;;;;3.40;0.65;;;23.00;51.20;;;;;;6228912;28;20408;-81
2022/09/22 11:36:47;;;;;;;5.32;0.98;;;23.00;50.20;;;;;;6229524;28;20050;-82
2022/09/22 11:39:56;;;;;;;3.55;0.77;;;22.90;51.70;;;;;;6230576;28;20049;-82
2022/09/22 11:43:08;;;;;;;1.35;0.50;;;22.90;51.60;;;;;;6236485;28;20053;-83
2022/09/22 11:46:21;;;;;;;1.67;0.60;;;23.00;51.80;;;;;;6245621;28;20056;-81
2022/09/22 11:49:37;;;;;;;1.33;0.50;;;23.30;50.80;;;;;;6254455;28;20046;-81
2022/09/22 11:52:56;;;;;;;4.70;0.60;;;23.00;51.00;;;;;;6251417;28;20053;-82
2022/09/22 11:56:10;;;;;;;1.52;0.70;;;23.00;51.40;;;;;;6254150;28;20526;-80
2022/09/22 11:59:30;;;;;;;1.80;0.88;;;23.20;50.80;;;;;;6247855;28;20046;-84
2022/09/22 12:02:38;;;;;;;2.83;0.90;;;23.40;51.30;;;;;;6252116;28;20504;-80
2022/09/22 12:05:43;;;;;;;;;;;23.70;50.30;;;;;;6253531;28;20045;-81
2022/09/22 12:08:52;;;;;;;1.77;0.40;;;23.90;49.60;;;;;;6236195;28;19922;-80
2022/09/22 12:11:56;;;;;;;0.82;0.40;;;24.00;48.10;;;;;;6226952;28;20101;-81
2022/09/22 12:15:06;;;;;;;0.95;0.50;;;24.10;48.60;;;;;;6233848;28;20045;-81
2022/09/22 12:18:13;;;;;;;1.50;0.43;;;24.20;48.00;;;;;;6226306;28;20484;-81
2022/09/22 12:21:32;;;;;;;1.48;0.43;;;24.20;47.70;;;;;;6227344;28;20046;-81
2022/09/22 12:24:34;;;;;;;1.75;1.10;;;24.00;47.80;;;;;;6227708;28;20056;-82
2022/09/22 12:27:36;;;;;;;2.78;0.75;;;24.10;47.70;;;;;;6225987;28;20056;-82
2022/09/22 12:30:39;;;;;;;1.50;0.68;;;24.10;48.20;;;;;;6228302;28;20049;-81
2022/09/22 12:33:47;;;;;;;10.35;0.98;;;24.40;47.50;;;;;;6230758;28;20042;-81
2022/09/22 12:36:53;;;;;;;1.08;0.35;;;24.50;47.20;;;;;;6232403;28;20053;-80
2022/09/22 12:39:57;;;;;;;1.45;0.50;;;24.30;45.90;;;;;;6232364;28;20073;-82
2022/09/22 12:42:59;;;;;;;1.40;0.50;;;23.80;46.50;;;;;;6241215;28;20045;-81
2022/09/22 12:46:06;;;;;;;2.30;0.77;;;23.60;47.20;;;;;;6248838;28;20076;-81
2022/09/22 12:49:08;;;;;;;1.10;0.40;;;23.50;47.40;;;;;;6257920;28;20129;-82
2022/09/22 12:52:56;;;;;;;4.00;0.63;;;23.30;47.60;;;;;;6256727;28;20041;-81
2022/09/22 12:55:59;;;;;;;4.25;0.57;;;23.10;47.50;;;;;;6254289;28;20053;-82
2022/09/22 12:59:01;;;;;;;1.27;0.60;;;23.30;49.10;;;;;;6251650;28;20549;-82
2022/09/22 13:02:17;;;;;;;1.88;1.27;;;23.50;47.60;;;;;;6236104;28;20045;-84
2022/09/22 13:05:33;;;;;;;0.50;0.28;;;23.60;46.70;;;;;;6226679;28;20056;-82
2022/09/22 13:09:09;;;;;;;2.33;0.80;;;23.70;47.30;;;;;;6229508;28;20053;-82
2022/09/22 13:12:26;;;;;;;1.20;0.68;;;23.70;47.20;;;;;;6228957;28;20061;-81
2022/09/22 13:15:30;;;;;;;0.93;0.40;;;23.80;47.70;;;;;;6241733;28;20418;-82
2022/09/22 13:18:35;;;;;;;1.08;0.47;;;24.10;46.60;;;;;;6250287;28;20056;-82
2022/09/22 13:21:40;;;;;;;1.35;0.80;;;24.10;46.50;;;;;;6250292;28;20483;-81
2022/09/22 13:24:42;;;;;;;1.08;0.40;;;24.00;46.90;;;;;;6251954;28;20053;-82
2022/09/22 13:27:45;;;;;;;1.95;0.40;;;23.80;46.70;;;;;;6250922;28;20049;-81
2022/09/22 13:30:58;;;;;;;0.43;0.20;;;23.60;46.80;;;;;;6250976;28;20128;-82
2022/09/22 13:33:59;;;;;;;2.60;0.40;;;23.50;46.80;;;;;;6250812;28;20069;-81
2022/09/22 13:37:06;;;;;;;1.33;0.35;;;23.50;47.60;;;;;;6251103;28;20056;-82
2022/09/22 13:40:10;;;;;;;0.70;0.23;;;23.90;45.80;;;;;;6250328;28;20128;-82
2022/09/22 13:43:23;;;;;;;2.28;0.70;;;23.80;45.60;;;;;;6249259;28;20909;-81
2022/09/22 13:46:29;;;;;;;1.42;0.47;;;23.60;46.00;;;;;;6245601;28;20056;-82
2022/09/22 13:49:35;;;;;;;2.45;0.40;;;23.50;45.80;;;;;;6251542;28;20053;-82
2022/09/22 13:52:39;;;;;;;2.25;0.50;;;23.20;46.30;;;;;;6252337;28;20048;-82
2022/09/22 13:55:41;;;;;;;0.95;0.40;;;23.00;46.50;;;;;;6254433;28;20056;-82
2022/09/22 13:58:46;;;;;;;0.55;0.20;;;23.00;47.00;;;;;;6253633;28;20045;-82
2022/09/22 14:01:50;;;;;;;3.45;0.60;;;23.10;46.60;;;;;;6241961;28;20042;-82
2022/09/22 14:04:54;;;;;;;0.38;0.20;;;23.00;46.80;;;;;;6230103;28;20073;-83
2022/09/22 14:07:58;;;;;;;3.03;0.60;;;23.10;47.10;;;;;;6244181;28;20081;-82
2022/09/22 14:11:01;;;;;;;2.97;1.40;;;23.20;46.90;;;;;;6226383;28;20050;-82
2022/09/22 14:14:06;;;;;;;2.15;0.82;;;23.10;47.00;;;;;;6234461;28;20538;-82
2022/09/22 14:17:15;;;;;;;1.00;0.40;;;23.00;47.00;;;;;;6226852;28;20081;-82
2022/09/22 14:20:17;;;;;;;0.80;0.50;;;23.00;46.50;;;;;;6228404;28;20072;-82
2022/09/22 14:23:30;;;;;;;1.40;0.80;;;22.80;47.30;;;;;;6225632;28;20049;-83
2022/09/22 14:26:36;;;;;;;2.40;0.40;;;23.00;47.60;;;;;;6225835;28;20042;-83
2022/09/22 14:29:40;;;;;;;1.33;0.40;;;23.30;46.70;;;;;;6227054;28;20046;-83
2022/09/22 14:32:47;;;;;;;0.57;0.30;;;23.20;45.80;;;;;;6227675;28;20049;-83
2022/09/22 14:35:50;;;;;;;3.93;0.40;;;23.10;46.30;;;;;;6226831;28;20526;-83
2022/09/22 14:39:00;;;;;;;1.63;0.30;;;23.00;46.60;;;;;;6225211;28;20049;-83
2022/09/22 14:42:10;;;;;;;1.02;0.22;;;23.00;46.10;;;;;;6228372;28;20092;-84
2022/09/22 14:45:19;;;;;;;1.67;0.28;;;23.00;46.30;;;;;;6235125;28;20060;-82
2022/09/22 14:48:27;;;;;;;1.65;0.40;;;23.00;45.90;;;;;;6226051;28;20049;-82
2022/09/22 14:51:31;;;;;;;0.55;0.20;;;22.80;46.20;;;;;;6227068;28;20056;-83
2022/09/22 14:54:34;;;;;;;0.93;0.30;;;22.60;46.80;;;;;;6224891;28;20467;-82
2022/09/22 14:57:36;;;;;;;1.10;0.50;;;22.60;46.50;;;;;;6227322;28;20042;-84
2022/09/22 15:04:16;;;;;;;0.38;0.28;;;22.70;46.80;;;;;;6226152;28;20479;-86
2022/09/22 15:07:23;;;;;;;1.55;0.70;;;22.60;46.20;;;;;;6224407;28;20057;-82
2022/09/22 15:10:27;;;;;;;2.53;0.40;;;22.40;46.80;;;;;;6224045;28;20049;-83
2022/09/22 15:13:37;;;;;;;2.88;0.22;;;22.20;47.80;;;;;;6233240;28;20045;-83
2022/09/22 15:16:42;;;;;;;2.90;0.70;;;22.00;47.30;;;;;;6245314;28;20045;-83
2022/09/22 15:19:44;;;;;;;2.50;0.45;;;21.60;47.20;;;;;;6248198;28;20061;-84
2022/09/22 15:22:46;;;;;;;0.40;0.20;;;21.30;47.80;;;;;;6248020;28;20041;-82
2022/09/22 15:25:50;;;;;;;1.73;0.30;;;21.00;48.30;;;;;;6250533;28;20038;-82
2022/09/22 15:28:54;;;;;;;6.03;0.55;;;20.80;49.00;;;;;;6248854;28;20057;-83
2022/09/22 15:31:58;;;;;;;1.08;0.30;;;20.80;49.50;;;;;;6247764;28;20062;-83
2022/09/22 15:35:00;;;;;;;0.65;0.22;;;20.60;49.30;;;;;;6247696;28;20045;-84
2022/09/22 15:38:01;;;;;;;0.70;0.28;;;20.50;50.10;;;;;;6247614;28;20045;-83
2022/09/22 15:41:04;;;;;;;5.45;0.40;;;20.40;49.80;;;;;;6248017;28;20155;-83
2022/09/22 15:44:05;;;;;;;1.27;0.40;;;20.30;50.10;;;;;;6240967;28;20081;-83
2022/09/22 15:47:15;;;;;;;2.60;0.47;;;20.20;50.60;;;;;;6250232;28;20041;-83
2022/09/22 15:50:19;;;;;;;1.95;1.27;;;20.10;51.10;;;;;;6248837;28;20513;-84
2022/09/22 15:53:22;;;;;;;1.08;0.60;;;20.10;50.40;;;;;;6247939;28;20049;-84
2022/09/22 15:56:27;;;;;;;1.27;0.65;;;20.00;50.60;;;;;;6247526;28;20050;-83
2022/09/22 15:59:32;;;;;;;1.05;0.63;;;20.00;51.40;;;;;;6249918;28;20172;-83
2022/09/22 16:02:38;;;;;;;0.38;0.20;;;19.80;51.40;;;;;;6253222;28;20045;-83
2022/09/22 16:05:40;;;;;;;2.25;0.28;;;19.80;51.40;;;;;;6252356;28;20049;-83
2022/09/22 16:08:44;;;;;;;1.38;0.88;;;19.60;51.70;;;;;;6253970;28;20053;-83
2022/09/22 16:11:47;;;;;;;4.60;0.70;;;19.60;51.40;;;;;;6243823;28;20119;-83
2022/09/22 16:14:48;;;;;;;3.17;0.30;;;19.60;52.20;;;;;;6244436;28;20123;-83
2022/09/22 16:17:51;;;;;;;0.40;0.28;;;19.60;52.80;;;;;;6255114;28;20465;-83
2022/09/22 16:21:02;;;;;;;0.85;0.50;;;19.60;52.30;;;;;;6255773;28;20049;-81
2022/09/22 16:24:07;;;;;;;1.42;0.50;;;19.50;52.50;;;;;;6254267;28;20426;-83
2022/09/22 16:27:09;;;;;;;4.53;0.52;;;19.50;52.90;;;;;;6254587;28;20594;-84
2022/09/22 16:30:11;;;;;;;1.50;0.50;;;19.40;53.20;;;;;;6253297;28;20049;-82